createdAt,value
2017-04-14T00:03:22.685Z,0
2017-04-14T00:08:19.101Z,0
2017-04-14T00:13:16.111Z,0
2017-04-14T00:18:12.562Z,0
2017-04-14T00:23:08.924Z,0
2017-04-14T00:28:05.623Z,0
2017-04-14T00:33:01.863Z,0
2017-04-14T00:37:59.544Z,0
2017-04-14T00:42:55.476Z,0
2017-04-14T00:47:53.107Z,0
2017-04-14T00:52:49.149Z,0
2017-04-14T00:57:45.426Z,0
2017-04-14T01:02:41.606Z,0
2017-04-14T01:07:38.159Z,0
2017-04-14T01:12:35.029Z,0
2017-04-14T01:17:32.066Z,0
2017-04-14T01:22:29.106Z,0
2017-04-14T01:27:25.605Z,0
2017-04-14T01:32:22.107Z,0
2017-04-14T01:37:19.025Z,0
2017-04-14T01:42:16.747Z,0
2017-04-14T01:47:14.192Z,0
2017-04-14T01:52:11.048Z,0
2017-04-14T01:57:07.530Z,0
2017-04-14T02:02:03.508Z,0
2017-04-14T02:07:00.071Z,0
2017-04-14T02:11:56.489Z,0
2017-04-14T02:16:54.025Z,0
2017-04-14T02:21:50.130Z,0
2017-04-14T02:26:46.449Z,0
2017-04-14T02:31:43.047Z,0
2017-04-14T02:36:39.573Z,0
2017-04-14T02:41:35.949Z,0
2017-04-14T02:46:33.482Z,0
2017-04-14T02:51:30.873Z,0
2017-04-14T02:56:26.751Z,0
2017-04-14T03:01:23.189Z,0
2017-04-14T03:06:19.610Z,0
2017-04-14T03:11:15.934Z,0
2017-04-14T03:16:13.091Z,0
2017-04-14T03:21:09.351Z,0
2017-04-14T03:26:05.871Z,0
2017-04-14T03:31:02.932Z,0
2017-04-14T03:35:59.332Z,0
2017-04-14T03:40:55.871Z,0
2017-04-14T03:45:52.255Z,0
2017-04-14T03:50:48.655Z,0
2017-04-14T03:55:45.093Z,0
2017-04-14T04:00:41.393Z,0
2017-04-14T04:05:37.732Z,0
2017-04-14T04:10:34.173Z,0
2017-04-14T04:15:31.060Z,0
2017-04-14T04:20:28.715Z,0
2017-04-14T04:25:24.655Z,0
2017-04-14T04:30:20.934Z,0
2017-04-14T04:35:17.405Z,5
2017-04-14T04:40:13.664Z,5
2017-04-14T04:45:09.710Z,10
2017-04-14T04:50:06.412Z,15
2017-04-14T04:55:02.877Z,20
2017-04-14T04:59:59.112Z,25
2017-04-14T05:04:55.605Z,30
2017-04-14T05:09:52.508Z,35
2017-04-14T05:14:48.848Z,40
2017-04-14T05:19:45.225Z,40
2017-04-14T05:24:41.509Z,45
2017-04-14T05:29:37.986Z,50
2017-04-14T05:34:34.587Z,55
2017-04-14T05:39:31.024Z,60
2017-04-14T05:44:27.308Z,65
2017-04-14T05:49:24.465Z,70
2017-04-14T05:54:20.903Z,75
2017-04-14T05:59:18.564Z,75
2017-04-14T06:04:14.781Z,85
2017-04-14T06:09:11.527Z,90
2017-04-14T06:14:08.283Z,90
2017-04-14T06:19:04.741Z,105
2017-04-14T06:24:01.399Z,95
2017-04-14T06:28:58.178Z,95
2017-04-14T06:33:54.403Z,100
2017-04-14T06:38:53.440Z,105
2017-04-14T06:43:49.718Z,100
2017-04-14T06:48:46.183Z,125
2017-04-14T06:53:42.726Z,110
2017-04-14T06:58:39.200Z,135
2017-04-14T07:03:35.881Z,195
2017-04-14T07:08:33.276Z,170
2017-04-14T07:13:30.582Z,130
2017-04-14T07:18:27.603Z,115
2017-04-14T07:23:24.182Z,125
2017-04-14T07:28:20.546Z,135
2017-04-14T07:33:17.748Z,155
2017-04-14T07:38:14.967Z,190
2017-04-14T07:43:11.700Z,185
2017-04-14T07:48:08.222Z,195
2017-04-14T07:53:04.712Z,145
2017-04-14T07:58:00.938Z,140
2017-04-14T08:03:00.438Z,140
2017-04-14T08:07:56.078Z,145
2017-04-14T08:12:52.629Z,145
2017-04-14T08:17:49.245Z,150
2017-04-14T08:22:45.807Z,145
2017-04-14T08:27:42.413Z,160
2017-04-14T08:32:39.042Z,160
2017-04-14T08:37:35.536Z,160
2017-04-14T08:42:32.030Z,155
2017-04-14T08:47:29.488Z,170
2017-04-14T08:52:25.907Z,180
2017-04-14T08:57:22.433Z,180
2017-04-14T09:02:19.266Z,165
2017-04-14T09:07:15.804Z,150
2017-04-14T09:12:12.679Z,145
2017-04-14T09:17:08.987Z,130
2017-04-14T09:22:05.353Z,130
2017-04-14T09:27:01.769Z,130
2017-04-14T09:31:59.065Z,135
2017-04-14T09:36:55.891Z,130
2017-04-14T09:41:52.297Z,125
2017-04-14T09:46:48.554Z,135
2017-04-14T09:51:45.156Z,130
2017-04-14T09:56:42.975Z,130
2017-04-14T10:01:39.095Z,135
2017-04-14T10:06:35.292Z,125
2017-04-14T10:11:31.826Z,115
2017-04-14T10:16:28.374Z,120
2017-04-14T10:21:25.009Z,120
2017-04-14T10:26:21.685Z,130
2017-04-14T10:31:17.907Z,145
2017-04-14T10:36:14.665Z,145
2017-04-14T10:41:11.347Z,150
2017-04-14T10:46:08.216Z,160
2017-04-14T10:51:06.155Z,185
2017-04-14T10:56:02.512Z,190
2017-04-14T11:00:58.808Z,185
2017-04-14T11:05:55.500Z,185
2017-04-14T11:10:52.609Z,195
2017-04-14T11:15:49.762Z,180
2017-04-14T11:20:46.225Z,190
2017-04-14T11:25:43.243Z,225
2017-04-14T11:30:40.083Z,225
2017-04-14T11:35:36.779Z,225
2017-04-14T11:40:33.656Z,245
2017-04-14T11:50:30.255Z,215
2017-04-14T11:55:27.374Z,225
2017-04-14T12:00:23.876Z,235
2017-04-14T12:05:20.946Z,210
2017-04-14T12:10:17.233Z,250
2017-04-14T12:15:14.149Z,375
2017-04-14T12:20:11.497Z,310
2017-04-14T12:25:11.429Z,270
2017-04-14T12:30:07.609Z,290
2017-04-14T12:35:05.122Z,285
2017-04-14T12:40:01.488Z,240
2017-04-14T12:44:57.991Z,195
2017-04-14T12:49:54.655Z,130
2017-04-14T12:54:50.880Z,160
2017-04-14T12:59:47.980Z,185
2017-04-14T13:04:43.840Z,185
2017-04-14T13:09:40.643Z,160
2017-04-14T13:14:37.261Z,120
2017-04-14T13:19:34.748Z,125
2017-04-14T13:24:30.669Z,115
2017-04-14T13:29:26.995Z,95
2017-04-14T13:34:23.446Z,120
2017-04-14T13:39:20.007Z,135
2017-04-14T13:44:16.618Z,135
2017-04-14T13:49:13.456Z,130
2017-04-14T13:54:10.601Z,120
2017-04-14T13:59:07.150Z,125
2017-04-14T14:04:03.536Z,110
2017-04-14T14:09:00.000Z,90
2017-04-14T14:13:56.110Z,75
2017-04-14T14:18:52.803Z,70
2017-04-14T14:23:49.046Z,110
2017-04-14T14:28:45.583Z,125
2017-04-14T14:33:42.837Z,95
2017-04-14T14:38:39.295Z,100
2017-04-14T14:43:35.818Z,100
2017-04-14T14:48:32.264Z,95
2017-04-14T14:53:28.758Z,95
2017-04-14T14:58:26.515Z,80
2017-04-14T15:03:22.930Z,70
2017-04-14T15:08:19.746Z,55
2017-04-14T15:13:16.053Z,45
2017-04-14T15:18:12.788Z,35
2017-04-14T15:23:09.646Z,20
2017-04-14T15:28:05.807Z,15
2017-04-14T15:33:02.229Z,20
2017-04-14T15:37:59.010Z,20
2017-04-14T15:42:55.156Z,30
2017-04-14T15:47:51.971Z,40
2017-04-14T15:52:48.628Z,45
2017-04-14T15:57:45.136Z,50
2017-04-14T16:02:41.374Z,50
2017-04-14T16:07:40.599Z,40
2017-04-14T16:12:36.509Z,30
2017-04-14T16:17:32.789Z,35
2017-04-14T16:22:29.724Z,25
2017-04-14T16:27:27.963Z,25
2017-04-14T16:32:24.145Z,25
2017-04-14T16:37:20.736Z,25
2017-04-14T16:42:17.243Z,30
2017-04-14T16:47:14.164Z,20
2017-04-14T16:52:10.665Z,15
2017-04-14T16:57:07.225Z,15
2017-04-14T17:02:03.632Z,10
2017-04-14T17:07:01.230Z,15
2017-04-14T17:11:58.869Z,10
2017-04-14T17:16:54.926Z,10
2017-04-14T17:21:51.662Z,10
2017-04-14T17:26:49.201Z,10
2017-04-14T17:31:45.588Z,5
2017-04-14T17:36:42.460Z,5
2017-04-14T17:41:38.937Z,5
2017-04-14T17:46:35.561Z,5
2017-04-14T17:51:31.732Z,5
2017-04-14T17:56:28.210Z,5
2017-04-14T18:01:24.582Z,0
2017-04-14T18:06:21.432Z,0
2017-04-14T18:11:17.798Z,0
2017-04-14T18:16:14.365Z,0
2017-04-14T18:21:10.964Z,0
2017-04-14T18:26:07.674Z,0
2017-04-14T18:31:04.367Z,0
2017-04-14T18:36:00.994Z,0
2017-04-14T18:40:57.379Z,0
2017-04-14T18:45:53.668Z,0
2017-04-14T18:50:50.377Z,0
2017-04-14T18:55:46.756Z,0
2017-04-14T19:00:43.549Z,0
2017-04-14T19:05:39.759Z,0
2017-04-14T19:10:36.105Z,0
2017-04-14T19:15:33.093Z,0
2017-04-14T19:20:29.536Z,0
2017-04-14T19:25:25.925Z,0
2017-04-14T19:30:22.432Z,0
2017-04-14T19:35:19.463Z,0
2017-04-14T19:40:16.021Z,0
2017-04-14T19:43:01.614Z,0
2017-04-14T19:43:21.447Z,0
2017-04-14T19:45:00.346Z,0
2017-04-14T19:49:54.150Z,0
2017-04-14T19:54:49.775Z,0
2017-04-14T20:00:05.736Z,0
2017-04-14T20:04:59.304Z,0
2017-04-14T20:09:55.520Z,0
2017-04-14T20:14:59.467Z,0
2017-04-14T20:19:56.481Z,0
2017-04-14T20:24:52.781Z,0
2017-04-14T20:29:49.437Z,0
2017-04-14T20:34:44.717Z,0
2017-04-14T20:39:44.142Z,0
2017-04-14T20:44:40.858Z,0
2017-04-14T20:49:36.082Z,0
2017-04-14T20:54:35.744Z,0
2017-04-14T20:59:32.465Z,0
2017-04-14T21:04:29.620Z,0
2017-04-14T21:09:24.842Z,0
2017-04-14T21:14:21.025Z,0
2017-04-14T21:19:20.602Z,0
2017-04-14T21:24:15.140Z,0
2017-04-14T21:29:11.041Z,0
2017-04-14T21:34:07.233Z,0
2017-04-14T21:39:04.909Z,0
2017-04-14T21:43:59.929Z,0
2017-04-14T21:48:55.804Z,0
2017-04-14T21:59:20.917Z,0
2017-04-14T22:04:17.267Z,0
2017-04-14T22:09:12.166Z,0
2017-04-14T22:14:08.002Z,0
2017-04-14T22:19:03.555Z,0
2017-04-14T22:23:58.906Z,0
2017-04-14T22:28:54.948Z,0
2017-04-14T22:33:50.467Z,0
2017-04-14T22:38:46.511Z,0
2017-04-14T22:43:44.929Z,0
2017-04-14T22:48:39.927Z,0
2017-04-14T22:53:35.202Z,0
2017-04-14T22:58:31.370Z,0
2017-04-14T23:03:27.028Z,0
2017-04-14T23:08:23.169Z,0
2017-04-14T23:13:19.053Z,0
2017-04-14T23:18:14.149Z,0
2017-04-14T23:23:10.359Z,0
2017-04-14T23:28:06.192Z,0
2017-04-14T23:33:01.950Z,0
2017-04-14T23:37:57.791Z,0
2017-04-14T23:42:53.554Z,0
2017-04-14T23:47:49.153Z,0
2017-04-14T23:52:44.792Z,0
2017-04-14T23:57:41.783Z,0
